sensor_id;sensor_type;location;lat;lon;timestamp;P1;durP1;ratioP1;P2;durP2;ratioP2
7074;SDS011;3578;51.568;6.932;2022-10-16T00:01:25;10.73;;;5.67;;
7074;SDS011;3578;51.568;6.932;2022-10-16T00:03:54;10.97;;;6.10;;
7074;SDS011;3578;51.568;6.932;2022-10-16T00:06:23;11.77;;;4.90;;
7074;SDS011;3578;51.568;6.932;2022-10-16T00:08:51;10.50;;;5.07;;
7074;SDS011;3578;51.568;6.932;2022-10-16T00:11:20;7.60;;;4.73;;
7074;SDS011;3578;51.568;6.932;2022-10-16T00:13:49;8.80;;;4.87;;
7074;SDS011;3578;51.568;6.932;2022-10-16T00:16:20;6.03;;;5.33;;
7074;SDS011;3578;51.568;6.932;2022-10-16T00:18:47;8.80;;;4.73;;
7074;SDS011;3578;51.568;6.932;2022-10-16T00:21:14;12.83;;;5.40;;
7074;SDS011;3578;51.568;6.932;2022-10-16T00:23:43;10.53;;;5.53;;
7074;SDS011;3578;51.568;6.932;2022-10-16T00:26:13;13.13;;;6.30;;
7074;SDS011;3578;51.568;6.932;2022-10-16T00:28:44;8.43;;;5.63;;
7074;SDS011;3578;51.568;6.932;2022-10-16T00:31:12;6.87;;;5.50;;
7074;SDS011;3578;51.568;6.932;2022-10-16T00:33:40;6.00;;;5.33;;
7074;SDS011;3578;51.568;6.932;2022-10-16T00:36:09;9.70;;;6.23;;
7074;SDS011;3578;51.568;6.932;2022-10-16T00:38:38;11.63;;;6.27;;
7074;SDS011;3578;51.568;6.932;2022-10-16T00:41:06;6.37;;;5.60;;
7074;SDS011;3578;51.568;6.932;2022-10-16T00:43:38;6.97;;;5.60;;
7074;SDS011;3578;51.568;6.932;2022-10-16T00:46:13;8.00;;;5.77;;
7074;SDS011;3578;51.568;6.932;2022-10-16T00:48:45;6.00;;;5.40;;
7074;SDS011;3578;51.568;6.932;2022-10-16T00:51:19;8.50;;;5.70;;
7074;SDS011;3578;51.568;6.932;2022-10-16T00:53:51;15.13;;;6.20;;
7074;SDS011;3578;51.568;6.932;2022-10-16T00:56:19;14.90;;;6.00;;
7074;SDS011;3578;51.568;6.932;2022-10-16T00:58:46;13.33;;;5.93;;
7074;SDS011;3578;51.568;6.932;2022-10-16T01:01:14;9.27;;;5.47;;
7074;SDS011;3578;51.568;6.932;2022-10-16T01:03:41;7.10;;;5.83;;
7074;SDS011;3578;51.568;6.932;2022-10-16T01:06:11;7.33;;;5.50;;
7074;SDS011;3578;51.568;6.932;2022-10-16T01:08:55;9.53;;;6.57;;
7074;SDS011;3578;51.568;6.932;2022-10-16T01:11:42;8.93;;;5.30;;
7074;SDS011;3578;51.568;6.932;2022-10-16T01:14:21;8.33;;;6.10;;
7074;SDS011;3578;51.568;6.932;2022-10-16T01:16:55;6.17;;;5.57;;
7074;SDS011;3578;51.568;6.932;2022-10-16T01:19:35;6.70;;;5.63;;
7074;SDS011;3578;51.568;6.932;2022-10-16T01:22:16;5.97;;;5.43;;
7074;SDS011;3578;51.568;6.932;2022-10-16T01:24:47;6.40;;;5.00;;
7074;SDS011;3578;51.568;6.932;2022-10-16T01:27:17;6.43;;;5.50;;
7074;SDS011;3578;51.568;6.932;2022-10-16T01:29:52;12.73;;;6.03;;
7074;SDS011;3578;51.568;6.932;2022-10-16T01:32:24;8.87;;;5.30;;
7074;SDS011;3578;51.568;6.932;2022-10-16T01:35:00;5.90;;;5.30;;
7074;SDS011;3578;51.568;6.932;2022-10-16T01:37:32;11.87;;;5.03;;
7074;SDS011;3578;51.568;6.932;2022-10-16T01:40:07;5.40;;;4.93;;
7074;SDS011;3578;51.568;6.932;2022-10-16T01:42:40;10.80;;;5.00;;
7074;SDS011;3578;51.568;6.932;2022-10-16T01:45:13;9.03;;;6.00;;
7074;SDS011;3578;51.568;6.932;2022-10-16T01:47:44;5.70;;;5.10;;
7074;SDS011;3578;51.568;6.932;2022-10-16T01:50:12;10.93;;;5.60;;
7074;SDS011;3578;51.568;6.932;2022-10-16T01:52:43;6.60;;;5.90;;
7074;SDS011;3578;51.568;6.932;2022-10-16T01:55:16;6.50;;;5.80;;
7074;SDS011;3578;51.568;6.932;2022-10-16T01:57:49;6.50;;;5.30;;
7074;SDS011;3578;51.568;6.932;2022-10-16T02:00:19;7.67;;;6.13;;
7074;SDS011;3578;51.568;6.932;2022-10-16T02:02:47;9.67;;;5.80;;
7074;SDS011;3578;51.568;6.932;2022-10-16T02:05:20;7.47;;;5.23;;
7074;SDS011;3578;51.568;6.932;2022-10-16T02:07:51;8.83;;;5.23;;
7074;SDS011;3578;51.568;6.932;2022-10-16T02:10:19;5.60;;;5.10;;
7074;SDS011;3578;51.568;6.932;2022-10-16T02:12:48;15.03;;;5.70;;
7074;SDS011;3578;51.568;6.932;2022-10-16T02:15:22;5.90;;;5.40;;
7074;SDS011;3578;51.568;6.932;2022-10-16T02:17:49;6.23;;;4.93;;
7074;SDS011;3578;51.568;6.932;2022-10-16T02:20:16;5.27;;;4.77;;
7074;SDS011;3578;51.568;6.932;2022-10-16T02:22:46;7.00;;;4.20;;
7074;SDS011;3578;51.568;6.932;2022-10-16T02:25:17;8.40;;;4.83;;
7074;SDS011;3578;51.568;6.932;2022-10-16T02:27:53;9.13;;;4.73;;
7074;SDS011;3578;51.568;6.932;2022-10-16T02:30:24;4.80;;;4.20;;
7074;SDS011;3578;51.568;6.932;2022-10-16T02:32:56;7.50;;;4.63;;
7074;SDS011;3578;51.568;6.932;2022-10-16T02:35:26;4.90;;;4.43;;
7074;SDS011;3578;51.568;6.932;2022-10-16T02:37:54;8.90;;;4.63;;
7074;SDS011;3578;51.568;6.932;2022-10-16T02:40:22;5.43;;;4.30;;
7074;SDS011;3578;51.568;6.932;2022-10-16T02:42:53;3.70;;;3.40;;
7074;SDS011;3578;51.568;6.932;2022-10-16T02:45:21;4.67;;;4.00;;
7074;SDS011;3578;51.568;6.932;2022-10-16T02:47:50;6.90;;;3.83;;
7074;SDS011;3578;51.568;6.932;2022-10-16T02:50:17;8.83;;;3.83;;
7074;SDS011;3578;51.568;6.932;2022-10-16T02:52:44;3.63;;;3.13;;
7074;SDS011;3578;51.568;6.932;2022-10-16T02:55:11;3.50;;;2.80;;
7074;SDS011;3578;51.568;6.932;2022-10-16T02:57:38;5.77;;;3.07;;
7074;SDS011;3578;51.568;6.932;2022-10-16T03:00:08;7.60;;;3.23;;
7074;SDS011;3578;51.568;6.932;2022-10-16T03:02:38;3.67;;;3.10;;
7074;SDS011;3578;51.568;6.932;2022-10-16T03:05:06;10.70;;;3.83;;
7074;SDS011;3578;51.568;6.932;2022-10-16T03:07:34;5.80;;;2.50;;
7074;SDS011;3578;51.568;6.932;2022-10-16T03:10:01;4.97;;;2.83;;
7074;SDS011;3578;51.568;6.932;2022-10-16T03:12:28;4.00;;;3.00;;
7074;SDS011;3578;51.568;6.932;2022-10-16T03:14:56;5.10;;;3.47;;
7074;SDS011;3578;51.568;6.932;2022-10-16T03:17:24;3.73;;;2.20;;
7074;SDS011;3578;51.568;6.932;2022-10-16T03:19:51;7.03;;;2.90;;
7074;SDS011;3578;51.568;6.932;2022-10-16T03:22:18;4.47;;;2.67;;
7074;SDS011;3578;51.568;6.932;2022-10-16T03:24:45;6.70;;;2.90;;
7074;SDS011;3578;51.568;6.932;2022-10-16T03:27:12;4.10;;;2.50;;
7074;SDS011;3578;51.568;6.932;2022-10-16T03:29:39;2.87;;;2.67;;
7074;SDS011;3578;51.568;6.932;2022-10-16T03:32:06;3.87;;;2.60;;
7074;SDS011;3578;51.568;6.932;2022-10-16T03:34:34;3.17;;;2.40;;
7074;SDS011;3578;51.568;6.932;2022-10-16T03:37:01;5.63;;;2.30;;
7074;SDS011;3578;51.568;6.932;2022-10-16T03:39:29;2.73;;;2.53;;
7074;SDS011;3578;51.568;6.932;2022-10-16T03:41:56;7.63;;;3.30;;
7074;SDS011;3578;51.568;6.932;2022-10-16T03:44:22;2.60;;;2.40;;
7074;SDS011;3578;51.568;6.932;2022-10-16T03:46:49;4.40;;;2.60;;
7074;SDS011;3578;51.568;6.932;2022-10-16T03:49:16;4.00;;;2.67;;
7074;SDS011;3578;51.568;6.932;2022-10-16T03:51:44;6.00;;;2.63;;
7074;SDS011;3578;51.568;6.932;2022-10-16T03:54:11;9.17;;;2.63;;
7074;SDS011;3578;51.568;6.932;2022-10-16T03:56:39;2.47;;;2.27;;
7074;SDS011;3578;51.568;6.932;2022-10-16T03:59:06;5.03;;;2.07;;
7074;SDS011;3578;51.568;6.932;2022-10-16T04:01:33;2.13;;;2.03;;
7074;SDS011;3578;51.568;6.932;2022-10-16T04:04:00;3.07;;;2.13;;
7074;SDS011;3578;51.568;6.932;2022-10-16T04:06:27;2.33;;;1.97;;
7074;SDS011;3578;51.568;6.932;2022-10-16T04:08:55;2.80;;;2.13;;
7074;SDS011;3578;51.568;6.932;2022-10-16T04:11:22;2.30;;;2.20;;
7074;SDS011;3578;51.568;6.932;2022-10-16T04:13:49;1.80;;;1.70;;
7074;SDS011;3578;51.568;6.932;2022-10-16T04:16:16;6.93;;;1.90;;
7074;SDS011;3578;51.568;6.932;2022-10-16T04:18:43;4.27;;;2.53;;
7074;SDS011;3578;51.568;6.932;2022-10-16T04:21:10;2.80;;;1.77;;
7074;SDS011;3578;51.568;6.932;2022-10-16T04:23:37;6.00;;;2.57;;
7074;SDS011;3578;51.568;6.932;2022-10-16T04:26:05;5.37;;;2.00;;
7074;SDS011;3578;51.568;6.932;2022-10-16T04:28:32;2.90;;;2.07;;
7074;SDS011;3578;51.568;6.932;2022-10-16T04:30:59;5.60;;;2.10;;
7074;SDS011;3578;51.568;6.932;2022-10-16T04:33:29;4.47;;;2.00;;
7074;SDS011;3578;51.568;6.932;2022-10-16T04:35:56;3.70;;;2.10;;
7074;SDS011;3578;51.568;6.932;2022-10-16T04:38:23;3.03;;;2.30;;
7074;SDS011;3578;51.568;6.932;2022-10-16T04:40:50;5.37;;;1.83;;
7074;SDS011;3578;51.568;6.932;2022-10-16T04:43:19;11.90;;;2.07;;
7074;SDS011;3578;51.568;6.932;2022-10-16T04:45:46;2.07;;;1.90;;
7074;SDS011;3578;51.568;6.932;2022-10-16T04:48:15;2.50;;;2.00;;
7074;SDS011;3578;51.568;6.932;2022-10-16T04:50:42;7.77;;;2.77;;
7074;SDS011;3578;51.568;6.932;2022-10-16T04:53:09;5.47;;;2.27;;
7074;SDS011;3578;51.568;6.932;2022-10-16T04:55:36;3.40;;;1.90;;
7074;SDS011;3578;51.568;6.932;2022-10-16T04:58:03;8.13;;;2.20;;
7074;SDS011;3578;51.568;6.932;2022-10-16T05:00:32;8.27;;;2.20;;
7074;SDS011;3578;51.568;6.932;2022-10-16T05:02:59;2.47;;;2.27;;
7074;SDS011;3578;51.568;6.932;2022-10-16T05:05:26;9.17;;;2.40;;
7074;SDS011;3578;51.568;6.932;2022-10-16T05:07:53;2.47;;;2.27;;
7074;SDS011;3578;51.568;6.932;2022-10-16T05:10:20;4.93;;;2.10;;
7074;SDS011;3578;51.568;6.932;2022-10-16T05:12:47;2.10;;;2.00;;
7074;SDS011;3578;51.568;6.932;2022-10-16T05:15:15;3.07;;;2.23;;
7074;SDS011;3578;51.568;6.932;2022-10-16T05:17:43;6.90;;;2.47;;
7074;SDS011;3578;51.568;6.932;2022-10-16T05:20:10;2.20;;;2.10;;
7074;SDS011;3578;51.568;6.932;2022-10-16T05:22:37;2.87;;;1.90;;
7074;SDS011;3578;51.568;6.932;2022-10-16T05:25:05;5.13;;;2.00;;
7074;SDS011;3578;51.568;6.932;2022-10-16T05:27:32;4.63;;;1.97;;
7074;SDS011;3578;51.568;6.932;2022-10-16T05:29:59;2.33;;;2.07;;
7074;SDS011;3578;51.568;6.932;2022-10-16T05:32:26;2.27;;;2.07;;
7074;SDS011;3578;51.568;6.932;2022-10-16T05:34:55;2.43;;;2.27;;
7074;SDS011;3578;51.568;6.932;2022-10-16T05:37:21;2.17;;;1.93;;
7074;SDS011;3578;51.568;6.932;2022-10-16T05:39:48;2.23;;;1.93;;
7074;SDS011;3578;51.568;6.932;2022-10-16T05:42:15;2.27;;;2.10;;
7074;SDS011;3578;51.568;6.932;2022-10-16T05:44:42;3.93;;;2.10;;
7074;SDS011;3578;51.568;6.932;2022-10-16T05:47:09;2.00;;;2.00;;
7074;SDS011;3578;51.568;6.932;2022-10-16T05:49:39;2.90;;;1.83;;
7074;SDS011;3578;51.568;6.932;2022-10-16T05:52:07;4.60;;;2.20;;
7074;SDS011;3578;51.568;6.932;2022-10-16T05:54:34;6.83;;;2.27;;
7074;SDS011;3578;51.568;6.932;2022-10-16T05:57:01;5.93;;;2.30;;
7074;SDS011;3578;51.568;6.932;2022-10-16T05:59:30;2.07;;;1.87;;
7074;SDS011;3578;51.568;6.932;2022-10-16T06:01:57;4.67;;;2.20;;
7074;SDS011;3578;51.568;6.932;2022-10-16T06:04:24;2.13;;;2.00;;
7074;SDS011;3578;51.568;6.932;2022-10-16T06:06:51;2.17;;;2.00;;
7074;SDS011;3578;51.568;6.932;2022-10-16T06:09:19;2.30;;;1.70;;
7074;SDS011;3578;51.568;6.932;2022-10-16T06:11:46;2.33;;;2.17;;
7074;SDS011;3578;51.568;6.932;2022-10-16T06:14:13;2.83;;;2.13;;
7074;SDS011;3578;51.568;6.932;2022-10-16T06:16:40;2.10;;;2.00;;
7074;SDS011;3578;51.568;6.932;2022-10-16T06:19:07;2.73;;;2.10;;
7074;SDS011;3578;51.568;6.932;2022-10-16T06:21:34;1.87;;;1.87;;
7074;SDS011;3578;51.568;6.932;2022-10-16T06:24:01;3.80;;;2.40;;
7074;SDS011;3578;51.568;6.932;2022-10-16T06:26:30;2.97;;;2.07;;
7074;SDS011;3578;51.568;6.932;2022-10-16T06:28:58;4.00;;;2.20;;
7074;SDS011;3578;51.568;6.932;2022-10-16T06:31:25;3.43;;;2.07;;
7074;SDS011;3578;51.568;6.932;2022-10-16T06:33:56;2.80;;;2.50;;
7074;SDS011;3578;51.568;6.932;2022-10-16T06:36:24;2.27;;;2.10;;
7074;SDS011;3578;51.568;6.932;2022-10-16T06:38:52;1.80;;;1.70;;
7074;SDS011;3578;51.568;6.932;2022-10-16T06:41:20;7.83;;;2.23;;
7074;SDS011;3578;51.568;6.932;2022-10-16T06:43:49;2.67;;;2.43;;
7074;SDS011;3578;51.568;6.932;2022-10-16T06:46:18;3.50;;;2.33;;
7074;SDS011;3578;51.568;6.932;2022-10-16T06:48:47;4.00;;;2.40;;
7074;SDS011;3578;51.568;6.932;2022-10-16T06:51:15;4.97;;;2.17;;
7074;SDS011;3578;51.568;6.932;2022-10-16T06:53:44;5.40;;;2.27;;
7074;SDS011;3578;51.568;6.932;2022-10-16T06:56:14;2.37;;;2.20;;
7074;SDS011;3578;51.568;6.932;2022-10-16T06:58:44;2.97;;;2.07;;
7074;SDS011;3578;51.568;6.932;2022-10-16T07:01:13;3.50;;;2.73;;
7074;SDS011;3578;51.568;6.932;2022-10-16T07:03:42;2.20;;;2.10;;
7074;SDS011;3578;51.568;6.932;2022-10-16T07:06:12;3.53;;;2.30;;
7074;SDS011;3578;51.568;6.932;2022-10-16T07:08:41;4.10;;;2.40;;
7074;SDS011;3578;51.568;6.932;2022-10-16T07:11:12;2.60;;;2.37;;
7074;SDS011;3578;51.568;6.932;2022-10-16T07:13:42;2.83;;;2.30;;
7074;SDS011;3578;51.568;6.932;2022-10-16T07:16:12;3.27;;;2.83;;
7074;SDS011;3578;51.568;6.932;2022-10-16T07:18:43;3.07;;;2.77;;
7074;SDS011;3578;51.568;6.932;2022-10-16T07:21:12;3.20;;;2.60;;
7074;SDS011;3578;51.568;6.932;2022-10-16T07:23:41;4.33;;;2.57;;
7074;SDS011;3578;51.568;6.932;2022-10-16T07:26:09;2.80;;;2.70;;
7074;SDS011;3578;51.568;6.932;2022-10-16T07:28:37;3.37;;;3.10;;
7074;SDS011;3578;51.568;6.932;2022-10-16T07:31:05;3.00;;;2.43;;
7074;SDS011;3578;51.568;6.932;2022-10-16T07:33:37;2.77;;;2.57;;
7074;SDS011;3578;51.568;6.932;2022-10-16T07:36:07;3.30;;;3.07;;
7074;SDS011;3578;51.568;6.932;2022-10-16T07:38:34;3.10;;;2.97;;
7074;SDS011;3578;51.568;6.932;2022-10-16T07:41:01;4.23;;;3.13;;
7074;SDS011;3578;51.568;6.932;2022-10-16T07:43:31;8.57;;;2.93;;
7074;SDS011;3578;51.568;6.932;2022-10-16T07:45:59;4.70;;;2.70;;
7074;SDS011;3578;51.568;6.932;2022-10-16T07:48:26;4.30;;;2.90;;
7074;SDS011;3578;51.568;6.932;2022-10-16T07:50:57;3.77;;;3.30;;
7074;SDS011;3578;51.568;6.932;2022-10-16T07:53:25;4.43;;;3.33;;
7074;SDS011;3578;51.568;6.932;2022-10-16T07:55:56;5.40;;;3.80;;
7074;SDS011;3578;51.568;6.932;2022-10-16T07:58:24;4.90;;;2.77;;
7074;SDS011;3578;51.568;6.932;2022-10-16T08:00:52;3.20;;;3.00;;
7074;SDS011;3578;51.568;6.932;2022-10-16T08:03:19;2.90;;;2.70;;
7074;SDS011;3578;51.568;6.932;2022-10-16T08:05:46;6.57;;;3.60;;
7074;SDS011;3578;51.568;6.932;2022-10-16T08:08:15;3.50;;;3.20;;
7074;SDS011;3578;51.568;6.932;2022-10-16T08:10:43;3.80;;;3.10;;
7074;SDS011;3578;51.568;6.932;2022-10-16T08:13:10;3.63;;;2.87;;
7074;SDS011;3578;51.568;6.932;2022-10-16T08:15:39;4.47;;;3.37;;
7074;SDS011;3578;51.568;6.932;2022-10-16T08:18:06;4.60;;;3.07;;
7074;SDS011;3578;51.568;6.932;2022-10-16T08:20:33;4.93;;;2.47;;
7074;SDS011;3578;51.568;6.932;2022-10-16T08:23:00;2.67;;;2.47;;
7074;SDS011;3578;51.568;6.932;2022-10-16T08:25:29;3.20;;;2.43;;
7074;SDS011;3578;51.568;6.932;2022-10-16T08:27:56;5.20;;;2.33;;
7074;SDS011;3578;51.568;6.932;2022-10-16T08:30:23;3.33;;;2.30;;
7074;SDS011;3578;51.568;6.932;2022-10-16T08:32:50;4.80;;;2.20;;
7074;SDS011;3578;51.568;6.932;2022-10-16T08:35:18;3.93;;;1.83;;
7074;SDS011;3578;51.568;6.932;2022-10-16T08:37:44;7.10;;;2.23;;
7074;SDS011;3578;51.568;6.932;2022-10-16T08:40:15;4.13;;;1.90;;
7074;SDS011;3578;51.568;6.932;2022-10-16T08:42:50;3.10;;;1.93;;
7074;SDS011;3578;51.568;6.932;2022-10-16T08:45:34;5.43;;;2.00;;
7074;SDS011;3578;51.568;6.932;2022-10-16T08:48:15;4.40;;;1.97;;
7074;SDS011;3578;51.568;6.932;2022-10-16T08:50:48;3.67;;;1.80;;
7074;SDS011;3578;51.568;6.932;2022-10-16T08:53:17;3.57;;;1.93;;
7074;SDS011;3578;51.568;6.932;2022-10-16T08:55:50;4.43;;;2.03;;
7074;SDS011;3578;51.568;6.932;2022-10-16T08:58:21;4.83;;;2.43;;
7074;SDS011;3578;51.568;6.932;2022-10-16T09:00:53;3.30;;;2.00;;
7074;SDS011;3578;51.568;6.932;2022-10-16T09:03:30;2.57;;;2.27;;
7074;SDS011;3578;51.568;6.932;2022-10-16T09:06:20;2.63;;;2.30;;
7074;SDS011;3578;51.568;6.932;2022-10-16T09:09:02;2.40;;;2.27;;
7074;SDS011;3578;51.568;6.932;2022-10-16T09:11:47;3.23;;;2.93;;
7074;SDS011;3578;51.568;6.932;2022-10-16T09:14:37;3.10;;;2.80;;
7074;SDS011;3578;51.568;6.932;2022-10-16T09:17:36;2.87;;;2.67;;
7074;SDS011;3578;51.568;6.932;2022-10-16T09:20:18;5.63;;;2.10;;
7074;SDS011;3578;51.568;6.932;2022-10-16T09:23:00;4.90;;;2.30;;
7074;SDS011;3578;51.568;6.932;2022-10-16T09:25:42;3.40;;;2.30;;
7074;SDS011;3578;51.568;6.932;2022-10-16T09:28:12;2.43;;;2.20;;
7074;SDS011;3578;51.568;6.932;2022-10-16T09:30:41;4.23;;;2.30;;
7074;SDS011;3578;51.568;6.932;2022-10-16T09:33:09;3.83;;;2.40;;
7074;SDS011;3578;51.568;6.932;2022-10-16T09:35:38;3.80;;;2.27;;
7074;SDS011;3578;51.568;6.932;2022-10-16T09:38:08;4.57;;;2.93;;
7074;SDS011;3578;51.568;6.932;2022-10-16T09:40:46;5.50;;;2.50;;
7074;SDS011;3578;51.568;6.932;2022-10-16T09:43:17;2.17;;;2.07;;
7074;SDS011;3578;51.568;6.932;2022-10-16T09:45:55;3.07;;;2.23;;
7074;SDS011;3578;51.568;6.932;2022-10-16T09:48:25;5.27;;;1.87;;
7074;SDS011;3578;51.568;6.932;2022-10-16T09:50:57;5.60;;;1.80;;
7074;SDS011;3578;51.568;6.932;2022-10-16T09:53:26;2.07;;;1.53;;
7074;SDS011;3578;51.568;6.932;2022-10-16T09:56:06;3.37;;;2.60;;
7074;SDS011;3578;51.568;6.932;2022-10-16T09:58:35;3.93;;;2.33;;
7074;SDS011;3578;51.568;6.932;2022-10-16T10:01:05;2.50;;;1.97;;
7074;SDS011;3578;51.568;6.932;2022-10-16T10:03:40;3.63;;;2.00;;
7074;SDS011;3578;51.568;6.932;2022-10-16T10:06:16;1.93;;;1.83;;
7074;SDS011;3578;51.568;6.932;2022-10-16T10:08:57;3.83;;;2.30;;
7074;SDS011;3578;51.568;6.932;2022-10-16T10:11:36;4.87;;;2.00;;
7074;SDS011;3578;51.568;6.932;2022-10-16T10:14:16;2.30;;;2.10;;
7074;SDS011;3578;51.568;6.932;2022-10-16T10:17:09;3.70;;;1.70;;
7074;SDS011;3578;51.568;6.932;2022-10-16T10:19:41;3.20;;;2.03;;
7074;SDS011;3578;51.568;6.932;2022-10-16T10:22:26;2.97;;;1.70;;
7074;SDS011;3578;51.568;6.932;2022-10-16T10:25:00;5.20;;;1.80;;
7074;SDS011;3578;51.568;6.932;2022-10-16T10:30:46;2.30;;;1.60;;
7074;SDS011;3578;51.568;6.932;2022-10-16T10:33:24;2.50;;;1.57;;
7074;SDS011;3578;51.568;6.932;2022-10-16T10:36:08;4.43;;;1.60;;
7074;SDS011;3578;51.568;6.932;2022-10-16T10:38:49;3.30;;;1.80;;
7074;SDS011;3578;51.568;6.932;2022-10-16T10:41:25;3.13;;;1.33;;
7074;SDS011;3578;51.568;6.932;2022-10-16T10:44:25;2.37;;;1.60;;
7074;SDS011;3578;51.568;6.932;2022-10-16T10:47:13;8.47;;;1.57;;
7074;SDS011;3578;51.568;6.932;2022-10-16T10:49:53;18.17;;;1.70;;
7074;SDS011;3578;51.568;6.932;2022-10-16T10:52:34;3.43;;;1.63;;
7074;SDS011;3578;51.568;6.932;2022-10-16T10:55:16;6.43;;;2.13;;
7074;SDS011;3578;51.568;6.932;2022-10-16T10:57:56;1.47;;;1.37;;
7074;SDS011;3578;51.568;6.932;2022-10-16T11:00:42;4.30;;;1.33;;
7074;SDS011;3578;51.568;6.932;2022-10-16T11:03:26;4.20;;;1.63;;
7074;SDS011;3578;51.568;6.932;2022-10-16T11:06:10;8.63;;;1.40;;
7074;SDS011;3578;51.568;6.932;2022-10-16T11:08:43;2.30;;;1.23;;
7074;SDS011;3578;51.568;6.932;2022-10-16T11:11:17;2.83;;;1.10;;
7074;SDS011;3578;51.568;6.932;2022-10-16T11:13:53;2.37;;;1.10;;
7074;SDS011;3578;51.568;6.932;2022-10-16T11:16:26;6.53;;;1.37;;
7074;SDS011;3578;51.568;6.932;2022-10-16T11:18:59;5.17;;;1.50;;
7074;SDS011;3578;51.568;6.932;2022-10-16T11:21:39;2.77;;;1.87;;
7074;SDS011;3578;51.568;6.932;2022-10-16T11:24:16;3.93;;;1.37;;
7074;SDS011;3578;51.568;6.932;2022-10-16T11:26:49;3.70;;;1.57;;
7074;SDS011;3578;51.568;6.932;2022-10-16T11:29:22;1.30;;;1.20;;
7074;SDS011;3578;51.568;6.932;2022-10-16T11:31:57;7.83;;;1.60;;
7074;SDS011;3578;51.568;6.932;2022-10-16T11:34:28;3.60;;;1.50;;
7074;SDS011;3578;51.568;6.932;2022-10-16T11:37:03;2.70;;;1.20;;
7074;SDS011;3578;51.568;6.932;2022-10-16T11:39:37;3.67;;;1.30;;
7074;SDS011;3578;51.568;6.932;2022-10-16T11:42:08;5.70;;;1.27;;
7074;SDS011;3578;51.568;6.932;2022-10-16T11:44:42;2.73;;;1.40;;
7074;SDS011;3578;51.568;6.932;2022-10-16T11:47:26;6.17;;;1.83;;
7074;SDS011;3578;51.568;6.932;2022-10-16T11:50:01;6.23;;;1.80;;
7074;SDS011;3578;51.568;6.932;2022-10-16T11:52:38;4.43;;;1.77;;
7074;SDS011;3578;51.568;6.932;2022-10-16T11:55:14;4.83;;;1.50;;
7074;SDS011;3578;51.568;6.932;2022-10-16T11:57:44;3.33;;;1.47;;
7074;SDS011;3578;51.568;6.932;2022-10-16T12:00:19;2.27;;;1.73;;
7074;SDS011;3578;51.568;6.932;2022-10-16T12:02:55;8.80;;;1.87;;
7074;SDS011;3578;51.568;6.932;2022-10-16T12:05:33;2.90;;;1.77;;
7074;SDS011;3578;51.568;6.932;2022-10-16T12:08:17;3.43;;;1.53;;
7074;SDS011;3578;51.568;6.932;2022-10-16T12:10:45;4.63;;;1.97;;
7074;SDS011;3578;51.568;6.932;2022-10-16T12:13:29;3.03;;;1.90;;
7074;SDS011;3578;51.568;6.932;2022-10-16T12:16:06;10.33;;;2.37;;
7074;SDS011;3578;51.568;6.932;2022-10-16T12:18:48;3.87;;;1.90;;
7074;SDS011;3578;51.568;6.932;2022-10-16T12:21:29;4.37;;;2.33;;
7074;SDS011;3578;51.568;6.932;2022-10-16T12:23:59;2.50;;;1.63;;
7074;SDS011;3578;51.568;6.932;2022-10-16T12:26:29;3.03;;;1.90;;
7074;SDS011;3578;51.568;6.932;2022-10-16T12:29:09;3.00;;;1.50;;
7074;SDS011;3578;51.568;6.932;2022-10-16T12:31:46;3.13;;;1.60;;
7074;SDS011;3578;51.568;6.932;2022-10-16T12:34:20;6.73;;;2.20;;
7074;SDS011;3578;51.568;6.932;2022-10-16T12:36:52;3.90;;;1.60;;
7074;SDS011;3578;51.568;6.932;2022-10-16T12:39:22;9.27;;;1.93;;
7074;SDS011;3578;51.568;6.932;2022-10-16T12:42:00;3.80;;;1.80;;
7074;SDS011;3578;51.568;6.932;2022-10-16T12:44:31;3.50;;;1.50;;
7074;SDS011;3578;51.568;6.932;2022-10-16T12:47:01;4.70;;;1.60;;
7074;SDS011;3578;51.568;6.932;2022-10-16T12:49:31;3.13;;;1.50;;
7074;SDS011;3578;51.568;6.932;2022-10-16T12:52:03;1.33;;;1.10;;
7074;SDS011;3578;51.568;6.932;2022-10-16T12:54:34;2.90;;;1.40;;
7074;SDS011;3578;51.568;6.932;2022-10-16T12:57:09;2.80;;;1.70;;
7074;SDS011;3578;51.568;6.932;2022-10-16T12:59:58;1.90;;;1.30;;
7074;SDS011;3578;51.568;6.932;2022-10-16T13:02:49;1.90;;;1.40;;
7074;SDS011;3578;51.568;6.932;2022-10-16T13:05:43;2.50;;;1.77;;
7074;SDS011;3578;51.568;6.932;2022-10-16T13:08:28;2.97;;;1.80;;
7074;SDS011;3578;51.568;6.932;2022-10-16T13:11:16;1.90;;;1.70;;
7074;SDS011;3578;51.568;6.932;2022-10-16T13:16:56;5.83;;;1.60;;
7074;SDS011;3578;51.568;6.932;2022-10-16T13:19:35;3.63;;;1.57;;
7074;SDS011;3578;51.568;6.932;2022-10-16T13:22:11;4.03;;;1.33;;
7074;SDS011;3578;51.568;6.932;2022-10-16T13:24:55;2.50;;;1.73;;
7074;SDS011;3578;51.568;6.932;2022-10-16T13:27:41;3.30;;;1.50;;
7074;SDS011;3578;51.568;6.932;2022-10-16T13:30:16;1.60;;;1.50;;
7074;SDS011;3578;51.568;6.932;2022-10-16T13:32:46;4.33;;;1.60;;
7074;SDS011;3578;51.568;6.932;2022-10-16T13:35:20;2.00;;;1.20;;
7074;SDS011;3578;51.568;6.932;2022-10-16T13:37:50;6.07;;;1.23;;
7074;SDS011;3578;51.568;6.932;2022-10-16T13:40:18;1.00;;;1.00;;
7074;SDS011;3578;51.568;6.932;2022-10-16T13:42:49;2.13;;;0.87;;
7074;SDS011;3578;51.568;6.932;2022-10-16T13:45:18;1.27;;;1.00;;
7074;SDS011;3578;51.568;6.932;2022-10-16T13:47:47;1.00;;;0.80;;
7074;SDS011;3578;51.568;6.932;2022-10-16T13:50:14;2.50;;;0.93;;
7074;SDS011;3578;51.568;6.932;2022-10-16T13:52:44;2.70;;;1.33;;
7074;SDS011;3578;51.568;6.932;2022-10-16T13:55:11;5.30;;;1.47;;
7074;SDS011;3578;51.568;6.932;2022-10-16T13:57:40;19.13;;;1.57;;
7074;SDS011;3578;51.568;6.932;2022-10-16T14:00:22;7.03;;;1.30;;
7074;SDS011;3578;51.568;6.932;2022-10-16T14:02:55;7.07;;;1.27;;
7074;SDS011;3578;51.568;6.932;2022-10-16T14:05:28;13.23;;;1.33;;
7074;SDS011;3578;51.568;6.932;2022-10-16T14:07:55;3.63;;;1.10;;
7074;SDS011;3578;51.568;6.932;2022-10-16T14:10:24;3.80;;;1.10;;
7074;SDS011;3578;51.568;6.932;2022-10-16T14:12:56;3.90;;;1.20;;
7074;SDS011;3578;51.568;6.932;2022-10-16T14:15:26;7.03;;;1.13;;
7074;SDS011;3578;51.568;6.932;2022-10-16T14:17:55;4.73;;;1.30;;
7074;SDS011;3578;51.568;6.932;2022-10-16T14:20:24;2.00;;;1.10;;
7074;SDS011;3578;51.568;6.932;2022-10-16T14:22:58;1.30;;;1.10;;
7074;SDS011;3578;51.568;6.932;2022-10-16T14:25:28;3.53;;;1.23;;
7074;SDS011;3578;51.568;6.932;2022-10-16T14:27:58;3.63;;;1.37;;
7074;SDS011;3578;51.568;6.932;2022-10-16T14:30:32;2.63;;;1.47;;
7074;SDS011;3578;51.568;6.932;2022-10-16T14:33:02;2.77;;;1.60;;
7074;SDS011;3578;51.568;6.932;2022-10-16T14:35:31;2.07;;;1.40;;
7074;SDS011;3578;51.568;6.932;2022-10-16T14:38:00;5.70;;;1.30;;
7074;SDS011;3578;51.568;6.932;2022-10-16T14:40:30;2.50;;;1.40;;
7074;SDS011;3578;51.568;6.932;2022-10-16T14:43:00;2.80;;;1.47;;
7074;SDS011;3578;51.568;6.932;2022-10-16T14:45:28;3.00;;;1.83;;
7074;SDS011;3578;51.568;6.932;2022-10-16T14:48:00;3.90;;;1.40;;
7074;SDS011;3578;51.568;6.932;2022-10-16T14:50:31;3.27;;;1.50;;
7074;SDS011;3578;51.568;6.932;2022-10-16T14:52:58;3.00;;;1.63;;
7074;SDS011;3578;51.568;6.932;2022-10-16T14:55:25;3.67;;;1.50;;
7074;SDS011;3578;51.568;6.932;2022-10-16T14:57:52;2.03;;;1.33;;
7074;SDS011;3578;51.568;6.932;2022-10-16T15:00:20;1.43;;;1.33;;
7074;SDS011;3578;51.568;6.932;2022-10-16T15:02:50;2.00;;;1.37;;
7074;SDS011;3578;51.568;6.932;2022-10-16T15:05:19;5.83;;;1.70;;
7074;SDS011;3578;51.568;6.932;2022-10-16T15:07:48;7.20;;;1.37;;
7074;SDS011;3578;51.568;6.932;2022-10-16T15:10:16;3.23;;;1.60;;
7074;SDS011;3578;51.568;6.932;2022-10-16T15:12:44;3.17;;;1.83;;
7074;SDS011;3578;51.568;6.932;2022-10-16T15:15:29;5.83;;;1.30;;
7074;SDS011;3578;51.568;6.932;2022-10-16T15:18:02;17.53;;;2.20;;
7074;SDS011;3578;51.568;6.932;2022-10-16T15:20:31;3.73;;;1.47;;
7074;SDS011;3578;51.568;6.932;2022-10-16T15:23:00;4.90;;;1.97;;
7074;SDS011;3578;51.568;6.932;2022-10-16T15:25:32;1.40;;;1.30;;
7074;SDS011;3578;51.568;6.932;2022-10-16T15:28:03;2.87;;;1.30;;
7074;SDS011;3578;51.568;6.932;2022-10-16T15:30:30;8.57;;;1.77;;
7074;SDS011;3578;51.568;6.932;2022-10-16T15:32:57;9.80;;;1.70;;
7074;SDS011;3578;51.568;6.932;2022-10-16T15:35:26;2.73;;;1.47;;
7074;SDS011;3578;51.568;6.932;2022-10-16T15:37:53;3.80;;;1.23;;
7074;SDS011;3578;51.568;6.932;2022-10-16T15:40:20;3.17;;;1.50;;
7074;SDS011;3578;51.568;6.932;2022-10-16T15:42:48;6.30;;;1.80;;
7074;SDS011;3578;51.568;6.932;2022-10-16T15:45:15;3.80;;;1.30;;
7074;SDS011;3578;51.568;6.932;2022-10-16T15:47:44;3.23;;;1.57;;